Time;durP1;ratioP1;P1;durP2;ratioP2;P2;SDS_P1;SDS_P2;PMS_P1;PMS_P2;Temp;Humidity;BMP_temperature;BMP_pressure;BME280_temperature;BME280_humidity;BME280_pressure;Samples;Min_cycle;Max_cycle;Signal;HPM_P1;HPM_P2
2024/05/02 00:01:58;;;;;;;13.30;8.13;;;;;;;9.95;100.00;95828.84;5582945;25;20924;-71
2024/05/02 00:04:24;;;;;;;12.07;7.60;;;;;;;9.87;100.00;95827.69;5545828;25;20772;-71
2024/05/02 00:06:49;;;;;;;13.53;9.03;;;;;;;9.87;100.00;95827.69;5543888;25;20225;-71
2024/05/02 00:09:15;;;;;;;13.67;8.33;;;;;;;9.92;100.00;95823.84;5543805;25;20604;-71
2024/05/02 00:11:40;;;;;;;12.20;8.40;;;;;;;9.89;100.00;95820.63;5545720;25;20221;-71
2024/05/02 00:14:06;;;;;;;13.67;8.87;;;;;;;9.94;100.00;95813.38;5543869;25;20272;-71
2024/05/02 00:16:37;;;;;;;15.43;8.90;;;;;;;9.99;100.00;95824.28;5545676;25;20229;-71
2024/05/02 00:19:03;;;;;;;13.55;8.75;;;;;;;10.02;100.00;95810.25;5545634;25;20248;-71
2024/05/02 00:21:28;;;;;;;15.80;9.57;;;;;;;9.82;100.00;95812.44;5543868;25;20615;-71
2024/05/02 00:25:55;;;;;;;14.88;9.43;;;;;;;9.68;100.00;95818.53;5435244;26;20625;-71
2024/05/02 00:28:21;;;;;;;14.07;8.70;;;;;;;9.48;100.00;95819.84;5433981;26;20220;-71
2024/05/02 00:30:46;;;;;;;12.60;8.43;;;;;;;9.49;100.00;95805.13;5434088;26;20224;-71
2024/05/02 00:33:12;;;;;;;17.40;9.27;;;;;;;9.35;100.00;95806.00;5436384;26;20267;-74
2024/05/02 00:35:37;;;;;;;12.27;8.40;;;;;;;9.15;100.00;95823.69;5434425;26;20710;-71
2024/05/02 00:38:03;;;;;;;16.20;8.53;;;;;;;9.43;100.00;95819.31;5433854;26;20220;-73
2024/05/02 00:40:28;;;;;;;15.20;8.80;;;;;;;9.52;100.00;95812.69;5435658;26;20228;-73
2024/05/02 00:42:54;;;;;;;13.40;8.90;;;;;;;9.60;100.00;95807.84;5433801;26;20590;-72
2024/05/02 00:45:20;;;;;;;14.40;9.43;;;;;;;9.65;100.00;95797.19;5433690;26;20588;-71
2024/05/02 00:49:51;;;;;;;12.98;9.00;;;;;;;9.28;100.00;95802.16;5582813;25;20875;-71
2024/05/02 00:52:17;;;;;;;13.70;9.50;;;;;;;9.10;100.00;95809.38;5550015;25;20323;-70
2024/05/02 00:54:42;;;;;;;13.82;8.30;;;;;;;9.16;100.00;95814.13;5550018;25;20239;-72
2024/05/02 00:57:08;;;;;;;15.00;9.40;;;;;;;9.38;100.00;95806.63;5550102;25;20328;-73
2024/05/02 00:59:34;;;;;;;13.50;8.63;;;;;;;9.63;100.00;95809.41;5550081;25;20218;-73
2024/05/02 01:01:59;;;;;;;14.27;8.93;;;;;;;9.66;100.00;95801.41;5549837;25;20440;-74
2024/05/02 01:04:25;;;;;;;13.30;8.93;;;;;;;9.56;100.00;95791.66;5583089;25;20216;-73
2024/05/02 01:06:51;;;;;;;14.80;9.67;;;;;;;9.38;100.00;95798.03;5583035;25;20212;-72
2024/05/02 01:09:17;;;;;;;14.05;9.27;;;;;;;9.22;100.00;95793.88;5583005;25;20263;-71
2024/05/02 01:13:46;;;;;;;12.77;8.80;;;;;;;9.18;100.00;95797.56;5545889;25;20684;-72
2024/05/02 01:16:11;;;;;;;14.20;9.03;;;;;;;9.05;100.00;95796.69;5476220;26;20261;-72
2024/05/02 01:18:37;;;;;;;14.40;9.10;;;;;;;8.98;100.00;95806.59;5476351;26;20218;-72
2024/05/02 01:21:03;;;;;;;14.00;8.50;;;;;;;9.05;100.00;95817.41;5476090;26;20219;-72
2024/05/02 01:23:29;;;;;;;16.10;9.40;;;;;;;9.04;100.00;95813.19;5508372;26;20218;-72
2024/05/02 01:25:55;;;;;;;14.50;9.83;;;;;;;9.09;100.00;95813.69;5476459;26;20241;-71
2024/05/02 01:28:20;;;;;;;15.60;8.90;;;;;;;9.16;100.00;95812.38;5508475;26;20439;-72
2024/05/02 01:30:46;;;;;;;15.00;10.07;;;;;;;8.92;100.00;95811.34;5508491;26;20243;-72
2024/05/02 01:33:12;;;;;;;13.70;9.50;;;;;;;8.90;100.00;95815.81;5475974;26;20222;-72
2024/05/02 01:37:42;;;;;;;15.02;9.18;;;;;;;8.83;100.00;95810.16;5583059;25;20361;-73
2024/05/02 01:40:09;;;;;;;14.57;9.23;;;;;;;8.99;100.00;95804.88;5513028;25;20320;-72
2024/05/02 01:42:34;;;;;;;15.13;10.13;;;;;;;9.05;100.00;95796.69;5545638;25;20264;-72
2024/05/02 01:45:00;;;;;;;15.80;10.17;;;;;;;8.85;100.00;95800.53;5512889;25;20725;-73
2024/05/02 01:47:28;;;;;;;14.10;9.63;;;;;;;8.86;100.00;95807.41;5545484;25;20275;-72
2024/05/02 01:49:54;;;;;;;12.00;8.43;;;;;;;9.00;100.00;95801.31;5545512;25;20217;-72
2024/05/02 01:52:19;;;;;;;14.10;8.80;;;;;;;9.06;100.00;95776.81;5512745;25;20217;-73
2024/05/02 01:54:45;;;;;;;14.43;9.80;;;;;;;9.19;100.00;95782.88;5512944;25;20225;-72
2024/05/02 01:57:10;;;;;;;15.60;9.87;;;;;;;9.17;100.00;95772.59;5545357;25;20221;-72
2024/05/02 02:01:39;;;;;;;18.05;9.52;;;;;;;9.12;100.00;95771.25;5545339;25;20354;-72
2024/05/02 02:04:05;;;;;;;15.13;9.33;;;;;;;9.10;100.00;95780.88;5508707;25;20711;-72
2024/05/02 02:06:31;;;;;;;14.40;9.27;;;;;;;8.80;100.00;95781.88;5506715;26;20960;-71
2024/05/02 02:08:56;;;;;;;17.33;9.47;;;;;;;8.67;100.00;95793.94;5507093;26;20218;-72
2024/05/02 02:11:22;;;;;;;17.50;10.30;;;;;;;8.64;100.00;95805.28;5506785;26;20662;-74
2024/05/02 02:13:47;;;;;;;14.63;9.50;;;;;;;8.56;100.00;95807.53;5506864;26;20223;-72
2024/05/02 02:16:13;;;;;;;16.87;10.03;;;;;;;8.45;100.00;95805.59;5506571;26;20226;-72
2024/05/02 02:18:38;;;;;;;12.90;9.27;;;;;;;8.70;100.00;95807.50;5476228;26;20226;-71
2024/05/02 02:21:04;;;;;;;15.10;9.70;;;;;;;8.78;100.00;95788.91;5506579;26;20218;-72
2024/05/02 02:25:36;;;;;;;14.07;9.40;;;;;;;8.70;100.00;95789.41;5545139;25;20679;-71
2024/05/02 02:28:01;;;;;;;17.80;10.07;;;;;;;8.59;100.00;95791.84;5508596;26;20210;-71
2024/05/02 02:30:27;;;;;;;14.80;9.23;;;;;;;8.44;100.00;95794.44;5508541;26;20218;-71
2024/05/02 02:32:52;;;;;;;14.50;9.47;;;;;;;8.28;100.00;95801.44;5476168;26;20306;-70
2024/05/02 02:35:18;;;;;;;13.87;8.80;;;;;;;8.25;100.00;95811.94;5476415;26;20220;-70
2024/05/02 02:37:43;;;;;;;15.43;8.97;;;;;;;8.06;100.00;95791.56;5508423;26;20611;-74
2024/05/02 02:40:09;;;;;;;15.80;8.87;;;;;;;8.34;100.00;95798.47;5508447;26;20558;-72
2024/05/02 02:42:37;;;;;;;14.93;9.17;;;;;;;8.45;100.00;95788.31;5476024;26;20556;-72
2024/05/02 02:45:03;;;;;;;19.40;9.85;;;;;;;8.51;100.00;95771.59;5508235;26;20234;-72
2024/05/02 02:49:33;;;;;;;14.57;9.02;;;;;;;8.65;100.00;95747.44;5545294;25;20449;-73
2024/05/02 02:51:58;;;;;;;16.37;9.43;;;;;;;8.56;100.00;95738.50;5543918;25;20224;-71
2024/05/02 02:54:23;;;;;;;15.23;9.30;;;;;;;8.59;100.00;95750.44;5543880;25;20221;-70
2024/05/02 02:56:49;;;;;;;14.70;9.40;;;;;;;8.65;100.00;95755.22;5544027;25;20213;-71
2024/05/02 02:59:14;;;;;;;14.47;9.40;;;;;;;8.60;100.00;95746.91;5545997;25;20213;-72
2024/05/02 03:01:41;;;;;;;14.70;8.73;;;;;;;8.33;100.00;95750.25;5544260;25;20244;-72
2024/05/02 03:04:07;;;;;;;16.02;9.70;;;;;;;8.28;100.00;95754.88;5544131;25;20233;-72
2024/05/02 03:06:33;;;;;;;14.10;9.00;;;;;;;7.87;100.00;95760.78;5543610;25;20225;-70
2024/05/02 03:09:00;;;;;;;14.00;8.93;;;;;;;7.62;100.00;95788.09;5545954;25;20561;-72
2024/05/02 03:13:44;;;;;;;12.68;8.80;;;;;;;7.90;100.00;95791.63;5545266;25;20423;-72
2024/05/02 03:16:14;;;;;;;17.40;9.73;;;;;;;7.89;100.00;95774.44;5508952;26;20678;-74
2024/05/02 03:18:42;;;;;;;14.73;9.57;;;;;;;7.83;100.00;95765.31;5476123;26;20277;-73
2024/05/02 03:21:12;;;;;;;14.93;9.13;;;;;;;7.57;100.00;95773.78;5508672;26;20736;-71
2024/05/02 03:23:41;;;;;;;18.80;9.60;;;;;;;7.58;100.00;95791.75;5508459;26;20234;-73
2024/05/02 03:26:09;;;;;;;14.50;9.55;;;;;;;7.64;100.00;95795.72;5476199;26;20249;-72
2024/05/02 03:28:35;;;;;;;15.38;9.88;;;;;;;7.71;100.00;95803.97;5508408;26;20215;-72
2024/05/02 03:31:04;;;;;;;13.77;8.67;;;;;;;7.91;100.00;95801.03;5476236;26;20314;-73
2024/05/02 03:33:29;;;;;;;12.77;8.90;;;;;;;8.11;100.00;95789.50;5508268;26;20321;-71
2024/05/02 03:37:26;;;;;;;14.18;9.73;;;;;;;8.22;100.00;95774.19;5583029;25;20851;-70
2024/05/02 03:39:52;;;;;;;15.87;10.00;;;;;;;8.27;100.00;95774.72;5513031;25;20221;-72
2024/05/02 03:42:17;;;;;;;16.80;9.93;;;;;;;8.23;100.00;95768.06;5513407;25;20308;-71
2024/05/02 03:44:43;;;;;;;15.13;10.07;;;;;;;8.30;100.00;95771.13;5513289;25;20707;-73
2024/05/02 03:47:09;;;;;;;14.70;10.23;;;;;;;8.36;100.00;95775.09;5513676;25;20248;-72
2024/05/02 03:49:34;;;;;;;16.40;10.07;;;;;;;8.49;100.00;95770.03;5545544;25;20610;-73
2024/05/02 03:52:00;;;;;;;15.73;9.90;;;;;;;8.50;100.00;95775.13;5545628;25;20304;-73
2024/05/02 03:54:25;;;;;;;17.53;10.13;;;;;;;8.45;100.00;95772.78;5545619;25;20225;-71
2024/05/02 03:56:52;;;;;;;14.97;10.60;;;;;;;8.46;100.00;95776.22;5545557;25;20680;-72
2024/05/02 04:01:24;;;;;;;13.95;9.65;;;;;;;8.17;100.00;95786.56;5621650;25;20308;-72
2024/05/02 04:03:50;;;;;;;14.87;9.37;;;;;;;7.81;100.00;95810.25;5550135;25;20284;-72
2024/05/02 04:06:16;;;;;;;15.50;10.43;;;;;;;7.88;100.00;95833.06;5583165;25;21000;-72
2024/05/02 04:08:41;;;;;;;15.53;9.50;;;;;;;7.95;100.00;95823.22;5583204;25;21048;-72
2024/05/02 04:11:07;;;;;;;16.30;10.53;;;;;;;8.04;100.00;95840.75;5550121;25;20220;-71
2024/05/02 04:13:33;;;;;;;13.37;9.50;;;;;;;8.14;100.00;95838.44;5583288;25;20212;-72
2024/05/02 04:15:58;;;;;;;17.27;9.40;;;;;;;8.35;100.00;95833.75;5583342;25;20217;-71
2024/05/02 04:18:24;;;;;;;14.00;9.00;;;;;;;8.41;100.00;95822.22;5550162;25;20657;-71
2024/05/02 04:20:50;;;;;;;13.80;9.53;;;;;;;8.51;100.00;95832.84;5583056;25;20566;-71
2024/05/02 04:25:21;;;;;;;14.88;9.65;;;;;;;8.25;100.00;95830.06;5582980;25;20314;-72
2024/05/02 04:27:47;;;;;;;17.50;9.97;;;;;;;8.47;100.00;95852.91;5543969;25;20660;-69
2024/05/02 04:30:12;;;;;;;14.67;9.80;;;;;;;8.18;100.00;95850.25;5544613;25;20582;-71
2024/05/02 04:32:38;;;;;;;14.60;9.90;;;;;;;8.08;100.00;95872.44;5547366;25;20259;-72
2024/05/02 04:35:04;;;;;;;16.23;10.50;;;;;;;8.24;100.00;95872.34;5544427;25;20251;-71
2024/05/02 04:37:29;;;;;;;19.50;10.77;;;;;;;8.36;100.00;95875.97;5543986;25;20220;-71
2024/05/02 04:39:55;;;;;;;15.40;10.30;;;;;;;8.67;100.00;95868.97;5545759;25;20263;-71
2024/05/02 04:42:20;;;;;;;17.90;10.60;;;;;;;8.76;100.00;95852.88;5545483;25;20242;-73
2024/05/02 04:44:46;;;;;;;16.53;10.17;;;;;;;8.80;100.00;95850.03;5545572;25;20685;-71
2024/05/02 04:49:18;;;;;;;16.83;9.88;;;;;;;8.88;100.00;95851.28;5583021;25;20369;-73
2024/05/02 04:51:44;;;;;;;17.77;10.30;;;;;;;8.88;100.00;95835.75;5512984;25;20220;-72
2024/05/02 04:54:09;;;;;;;15.93;10.03;;;;;;;8.77;100.00;95842.44;5513403;25;20300;-72
2024/05/02 04:56:35;;;;;;;15.70;10.57;;;;;;;8.81;100.00;95837.91;5513006;25;20218;-71
2024/05/02 04:59:19;;;;;;;14.03;9.33;;;;;;;9.05;100.00;95837.31;5545610;25;20276;-72
2024/05/02 05:01:44;;;;;;;16.60;10.23;;;;;;;9.17;100.00;95833.94;5513157;25;20323;-72
2024/05/02 05:04:10;;;;;;;14.13;9.83;;;;;;;9.22;100.00;95840.50;5512851;25;20229;-71
2024/05/02 05:06:36;;;;;;;17.03;10.97;;;;;;;9.25;100.00;95830.84;5512614;25;20244;-72
2024/05/02 05:09:04;;;;;;;14.97;9.40;;;;;;;9.19;100.00;95839.84;5512711;25;20217;-75
2024/05/02 05:13:19;;;;;;;14.43;9.82;;;;;;;9.12;100.00;95838.56;5582901;25;20933;-72
2024/05/02 05:15:47;;;;;;;14.93;10.02;;;;;;;9.03;100.00;95835.63;5545715;25;20225;-72
2024/05/02 05:18:13;;;;;;;15.55;9.40;;;;;;;8.95;100.00;95834.44;5513535;25;20232;-73
2024/05/02 05:20:40;;;;;;;17.50;10.40;;;;;;;9.11;100.00;95829.94;5512938;25;20575;-73
2024/05/02 05:23:05;;;;;;;17.10;11.23;;;;;;;9.23;100.00;95823.19;5512771;25;20225;-71
2024/05/02 05:25:31;;;;;;;15.90;10.63;;;;;;;9.29;100.00;95822.78;5513316;25;20661;-72
2024/05/02 05:27:56;;;;;;;16.70;10.43;;;;;;;9.40;100.00;95828.13;5545591;25;20322;-73
2024/05/02 05:30:22;;;;;;;16.13;11.77;;;;;;;9.71;100.00;95828.69;5512688;25;20719;-72
2024/05/02 05:32:48;;;;;;;19.50;10.57;;;;;;;9.60;100.00;95824.22;5545513;25;20758;-72
2024/05/02 05:37:14;;;;;;;15.40;9.93;;;;;;;9.75;100.00;95812.03;5582846;25;20543;-71
2024/05/02 05:39:39;;;;;;;16.50;11.03;;;;;;;9.52;100.00;95792.78;5543910;25;20649;-71
2024/05/02 05:42:05;;;;;;;14.60;10.30;;;;;;;9.71;100.00;95804.53;5543840;25;20247;-71
2024/05/02 05:44:33;;;;;;;17.07;10.70;;;;;;;9.68;100.00;95809.91;5545999;25;20213;-72
2024/05/02 05:46:59;;;;;;;18.55;11.98;;;;;;;9.90;100.00;95815.34;5545872;25;20221;-71
2024/05/02 05:49:25;;;;;;;17.20;11.00;;;;;;;9.98;100.00;95820.00;5545783;25;20289;-72
2024/05/02 05:51:50;;;;;;;16.63;10.90;;;;;;;10.27;100.00;95822.41;5545702;25;20681;-72
2024/05/02 05:54:49;;;;;;;18.13;11.27;;;;;;;10.40;100.00;95818.06;5543670;25;20255;-72
2024/05/02 05:57:17;;;;;;;17.13;10.43;;;;;;;10.34;100.00;95818.50;5543837;25;20233;-72
2024/05/02 06:01:15;;;;;;;20.58;11.85;;;;;;;10.32;100.00;95820.38;5545471;25;20561;-72
2024/05/02 06:03:41;;;;;;;16.58;11.10;;;;;;;10.83;100.00;95822.06;5508646;25;20214;-71
2024/05/02 06:06:08;;;;;;;15.60;10.60;;;;;;;10.82;100.00;95812.59;5508826;26;20314;-72
2024/05/02 06:08:36;;;;;;;16.58;11.30;;;;;;;10.92;100.00;95811.84;5476346;26;20253;-71
2024/05/02 06:11:04;;;;;;;17.30;11.20;;;;;;;10.89;100.00;95811.22;5476306;26;20222;-72
2024/05/02 06:13:30;;;;;;;15.88;10.68;;;;;;;10.88;100.00;95815.59;5476249;26;20298;-72
2024/05/02 06:15:56;;;;;;;15.27;9.52;;;;;;;10.95;100.00;95801.25;5508507;26;20323;-72
2024/05/02 06:18:21;;;;;;;16.93;11.47;;;;;;;11.10;100.00;95794.13;5475887;26;20231;-72
2024/05/02 06:20:47;;;;;;;18.17;11.20;;;;;;;11.11;100.00;95793.19;5508169;26;20214;-71
2024/05/02 06:25:09;;;;;;;16.65;11.93;;;;;;;11.14;100.00;95777.34;5583421;25;20318;-70
2024/05/02 06:27:35;;;;;;;18.93;12.40;;;;;;;11.39;100.00;95778.19;5544096;25;20222;-71
2024/05/02 06:30:02;;;;;;;19.58;12.20;;;;;;;11.43;100.00;95782.22;5544025;25;20222;-74
2024/05/02 06:32:27;;;;;;;21.30;12.23;;;;;;;11.52;100.00;95763.34;5543873;25;20693;-73
2024/05/02 06:34:53;;;;;;;18.30;11.40;;;;;;;11.60;100.00;95762.75;5543696;25;20244;-73
2024/05/02 06:37:18;;;;;;;18.87;11.00;;;;;;;11.69;100.00;95761.25;5545560;25;20248;-73
2024/05/02 06:39:44;;;;;;;16.90;10.57;;;;;;;11.77;100.00;95750.25;5545586;25;20263;-72
2024/05/02 06:42:09;;;;;;;16.70;10.63;;;;;;;11.92;100.00;95754.34;5543915;25;20220;-72
2024/05/02 06:44:35;;;;;;;17.90;12.53;;;;;;;12.03;100.00;95750.94;5544280;25;20250;-71
2024/05/02 06:49:06;;;;;;;16.92;11.13;;;;;;;12.28;100.00;95763.72;5582998;25;20327;-71
2024/05/02 06:51:35;;;;;;;18.03;11.50;;;;;;;12.41;100.00;95753.19;5544094;25;20226;-72
2024/05/02 06:54:03;;;;;;;17.05;11.50;;;;;;;12.60;100.00;95762.97;5544059;25;20216;-72
2024/05/02 06:56:28;;;;;;;17.17;10.40;;;;;;;12.71;100.00;95758.72;5543777;25;20288;-73
2024/05/02 06:58:54;;;;;;;16.07;10.63;;;;;;;12.84;100.00;95746.34;5544016;25;20219;-74
2024/05/02 07:01:19;;;;;;;14.80;10.70;;;;;;;12.93;100.00;95755.22;5545571;25;20265;-72
2024/05/02 07:03:46;;;;;;;17.73;11.70;;;;;;;13.32;100.00;95753.84;5543933;25;20281;-72
2024/05/02 07:06:13;;;;;;;18.42;12.30;;;;;;;13.57;100.00;95757.03;5543876;25;20603;-71
2024/05/02 07:08:40;;;;;;;16.42;11.10;;;;;;;13.89;100.00;95754.34;5543789;25;20627;-71
2024/05/02 07:13:08;;;;;;;16.25;10.40;;;;;;;14.67;100.00;95736.44;5546052;25;20585;-74
2024/05/02 07:15:35;;;;;;;14.90;10.50;;;;;;;14.82;100.00;95723.81;5475696;26;20225;-71
2024/05/02 07:18:08;;;;;;;15.25;10.40;;;;;;;14.97;100.00;95714.63;5467739;26;20252;-73
2024/05/02 07:20:35;;;;;;;15.35;10.70;;;;;;;15.35;100.00;95706.91;5476234;26;20548;-71
2024/05/02 07:23:10;;;;;;;16.73;9.30;;;;;;;15.40;100.00;95702.09;5508294;26;20623;-72
2024/05/02 07:25:35;;;;;;;15.75;10.00;;;;;;;15.25;100.00;95698.25;5476625;26;20213;-70
2024/05/02 07:28:02;;;;;;;14.33;9.60;;;;;;;15.16;100.00;95699.91;5476086;26;20226;-70
2024/05/02 07:30:30;;;;;;;15.02;9.65;;;;;;;15.21;100.00;95700.34;5508410;26;20862;-71
2024/05/02 07:32:56;;;;;;;16.85;9.93;;;;;;;15.29;100.00;95691.78;5476003;26;20233;-71
2024/05/02 07:37:03;;;;;;;18.58;10.35;;;;;;;15.59;100.00;95682.94;5545440;25;20757;-71
2024/05/02 07:39:30;;;;;;;13.05;9.18;;;;;;;15.98;100.00;95682.03;5476277;26;20326;-72
2024/05/02 07:41:57;;;;;;;15.35;9.48;;;;;;;16.29;100.00;95688.66;5446321;26;20227;-72
2024/05/02 07:44:25;;;;;;;13.90;9.05;;;;;;;16.54;100.00;95680.28;5508641;26;20439;-72
2024/05/02 07:46:53;;;;;;;14.98;9.15;;;;;;;16.69;100.00;95684.03;5508695;26;20584;-70
2024/05/02 07:49:19;;;;;;;13.45;8.65;;;;;;;16.85;100.00;95683.41;5446398;26;20628;-71
2024/05/02 07:51:44;;;;;;;13.57;8.77;;;;;;;17.08;100.00;95674.13;5476093;26;20225;-70
2024/05/02 07:54:10;;;;;;;13.27;8.87;;;;;;;17.08;100.00;95678.53;5508255;26;20230;-72
2024/05/02 07:56:35;;;;;;;14.80;9.23;;;;;;;17.06;100.00;95673.47;5476075;26;20222;-70
2024/05/02 08:00:59;;;;;;;16.37;9.40;;;;;;;17.46;100.00;95674.78;5583015;25;20526;-71
2024/05/02 08:03:24;;;;;;;13.10;8.60;;;;;;;17.38;100.00;95668.63;5544027;25;20546;-71
2024/05/02 08:05:51;;;;;;;13.30;8.63;;;;;;;17.25;100.00;95666.41;5545656;25;20213;-70
2024/05/02 08:08:17;;;;;;;17.80;9.10;;;;;;;17.43;100.00;95664.59;5545752;25;20214;-71
2024/05/02 08:10:43;;;;;;;13.37;8.63;;;;;;;17.84;100.00;95669.28;5543809;25;20837;-70
2024/05/02 08:13:10;;;;;;;12.40;8.37;;;;;;;17.96;100.00;95662.00;5546065;25;20272;-73
2024/05/02 08:15:38;;;;;;;13.20;8.47;;;;;;;17.59;100.00;95663.88;5545807;25;20284;-71
2024/05/02 08:18:08;;;;;;;14.37;9.30;;;;;;;18.07;100.00;95663.53;5543120;25;20555;-70
2024/05/02 08:20:34;;;;;;;11.80;8.60;;;;;;;18.19;100.00;95672.75;5543398;25;20896;-70
2024/05/02 08:24:58;;;;;;;14.37;8.17;;;;;;;17.57;100.00;95668.47;5545348;25;20630;-70
2024/05/02 08:27:24;;;;;;;18.83;9.13;;;;;;;17.57;100.00;95667.63;5506811;26;20445;-70
2024/05/02 08:29:50;;;;;;;13.70;8.60;;;;;;;18.02;100.00;95664.00;5508476;25;20220;-71
2024/05/02 08:32:15;;;;;;;13.23;8.30;;;;;;;18.54;100.00;95669.13;5507000;26;20254;-71
2024/05/02 08:34:41;;;;;;;13.40;8.53;;;;;;;18.56;100.00;95664.53;5508707;25;20211;-70
2024/05/02 08:37:07;;;;;;;15.03;8.30;;;;;;;18.80;100.00;95661.16;5506765;26;20220;-74
2024/05/02 08:39:33;;;;;;;12.53;8.63;;;;;;;19.08;100.00;95666.16;5506756;26;20251;-71
2024/05/02 08:42:07;;;;;;;15.30;7.63;;;;;;;19.14;100.00;95668.13;5506661;26;20928;-72
2024/05/02 08:44:35;;;;;;;12.73;8.10;;;;;;;19.28;100.00;95663.19;5506668;26;20221;-71
2024/05/02 08:49:03;;;;;;;12.53;8.60;;;;;;;19.48;100.00;95672.44;5507468;25;20537;-74
2024/05/02 08:52:01;;;;;;;14.10;8.83;;;;;;;18.94;100.00;95679.97;5470172;26;20782;-71
2024/05/02 08:54:28;;;;;;;11.80;7.63;;;;;;;18.71;100.00;95664.75;5472068;26;21050;-71
2024/05/02 08:56:56;;;;;;;16.97;8.47;;;;;;;19.01;100.00;95662.53;5469937;26;20505;-70
2024/05/02 08:59:28;;;;;;;14.10;8.77;;;;;;;19.05;100.00;95663.03;5471707;26;20565;-70
2024/05/02 09:01:55;;;;;;;16.43;8.10;;;;;;;18.60;100.00;95670.31;5471847;26;20452;-74
2024/05/02 09:04:21;;;;;;;12.53;7.70;;;;;;;19.28;100.00;95669.31;5471829;26;20447;-70
2024/05/02 09:06:51;;;;;;;14.63;8.80;;;;;;;19.44;100.00;95678.19;5469828;26;20527;-70
2024/05/02 09:09:17;;;;;;;13.10;7.80;;;;;;;19.47;100.00;95673.41;5471806;26;20849;-70
2024/05/02 09:12:52;;;;;;;12.37;8.40;;;;;;;19.48;100.00;95671.59;5545330;25;20322;-72
2024/05/02 09:15:19;;;;;;;13.30;8.10;;;;;;;19.77;100.00;95673.72;5506693;26;20497;-71
2024/05/02 09:17:46;;;;;;;13.30;8.63;;;;;;;19.63;100.00;95671.72;5508614;25;20863;-71
2024/05/02 09:20:13;;;;;;;13.83;7.97;;;;;;;19.61;100.00;95666.66;5508981;25;20811;-72
2024/05/02 09:22:42;;;;;;;15.13;9.23;;;;;;;19.78;100.00;95674.56;5506842;26;20551;-71
2024/05/02 09:25:12;;;;;;;15.77;8.50;;;;;;;19.56;100.00;95671.59;5506683;26;20454;-71
2024/05/02 09:27:41;;;;;;;11.70;7.60;;;;;;;20.06;100.00;95678.44;5506645;26;20455;-71
2024/05/02 09:30:08;;;;;;;11.10;8.30;;;;;;;20.01;100.00;95677.31;5506535;26;20450;-71
2024/05/02 09:32:34;;;;;;;13.10;8.13;;;;;;;20.33;100.00;95669.28;5508289;25;20906;-71
2024/05/02 09:36:54;;;;;;;12.13;8.60;;;;;;;20.97;100.00;95657.78;5582956;25;20318;-73
2024/05/02 09:39:26;;;;;;;11.67;8.03;;;;;;;21.32;100.00;95657.38;5543915;25;20497;-73
2024/05/02 09:41:59;;;;;;;13.20;8.87;;;;;;;21.65;100.00;95653.50;5543946;25;20505;-70
2024/05/02 09:44:28;;;;;;;15.13;8.63;;;;;;;21.44;100.00;95658.59;5544189;25;20877;-71
2024/05/02 09:47:02;;;;;;;11.90;8.07;;;;;;;21.36;100.00;95654.22;5543815;25;20832;-72
2024/05/02 09:49:28;;;;;;;12.50;8.67;;;;;;;21.03;100.00;95646.53;5543977;25;20497;-74
2024/05/02 09:52:05;;;;;;;15.20;8.87;;;;;;;20.83;100.00;95659.38;5543784;25;20458;-75
2024/05/02 09:54:32;;;;;;;15.53;8.97;;;;;;;20.64;100.00;95660.59;5543985;25;20940;-72
2024/05/02 09:57:25;;;;;;;14.80;8.00;;;;;;;20.59;100.00;95664.72;5543695;25;20553;-72
2024/05/02 10:00:45;;;;;;;12.93;7.90;;;;;;;20.30;100.00;95664.38;5583199;25;20523;-73
2024/05/02 10:03:12;;;;;;;12.00;8.27;;;;;;;19.75;100.00;95666.03;5545896;25;20440;-73
2024/05/02 10:05:38;;;;;;;13.30;8.30;;;;;;;19.83;100.00;95667.81;5543873;25;20499;-72
2024/05/02 10:08:09;;;;;;;11.33;7.87;;;;;;;20.10;100.00;95676.28;5543877;25;20936;-74
2024/05/02 10:10:36;;;;;;;13.23;8.27;;;;;;;20.32;100.00;95672.94;5545526;25;20498;-72
2024/05/02 10:13:03;;;;;;;16.80;8.77;;;;;;;20.32;100.00;95674.75;5544053;25;20489;-71
2024/05/02 10:15:30;;;;;;;15.53;8.20;;;;;;;20.82;100.00;95670.09;5545526;25;20441;-72
2024/05/02 10:17:57;;;;;;;12.67;8.80;;;;;;;20.59;100.00;95670.84;5543670;25;20449;-73
2024/05/02 10:20:28;;;;;;;15.70;8.73;;;;;;;20.70;100.00;95673.13;5545387;25;20783;-73
2024/05/02 10:24:40;;;;;;;13.47;9.13;;;;;;;20.60;100.00;95661.94;5582981;25;20450;-73
2024/05/02 10:27:07;;;;;;;13.80;8.07;;;;;;;20.89;100.00;95656.03;5512951;25;20457;-74
2024/05/02 10:29:33;;;;;;;10.97;7.87;;;;;;;21.12;100.00;95662.31;5512848;25;20225;-73
2024/05/02 10:31:59;;;;;;;13.27;8.10;;;;;;;21.43;100.00;95656.97;5512708;25;20441;-73
2024/05/02 10:34:26;;;;;;;12.70;8.63;;;;;;;20.74;100.00;95659.56;5545591;25;20271;-71
2024/05/02 10:36:56;;;;;;;11.67;7.37;;;;;;;20.61;100.00;95654.88;5512866;25;20489;-74
2024/05/02 10:39:24;;;;;;;15.30;8.67;;;;;;;20.55;100.00;95658.16;5512675;25;20498;-71
2024/05/02 10:41:50;;;;;;;12.60;8.33;;;;;;;20.44;100.00;95659.38;5512752;25;20462;-71
2024/05/02 10:44:15;;;;;;;11.73;7.77;;;;;;;20.86;100.00;95663.47;5512742;25;20515;-71
2024/05/02 10:48:38;;;;;;;12.10;7.93;;;;;;;20.90;100.00;95667.38;5435332;25;20661;-71
2024/05/02 10:51:05;;;;;;;14.37;8.70;;;;;;;21.14;100.00;95661.16;5434050;26;20438;-71
2024/05/02 10:53:31;;;;;;;12.00;8.17;;;;;;;21.06;100.00;95658.56;5434044;26;20254;-71
2024/05/02 10:55:58;;;;;;;11.83;7.70;;;;;;;20.86;100.00;95674.84;5434005;26;20961;-71
2024/05/02 10:58:24;;;;;;;18.10;8.73;;;;;;;20.74;100.00;95665.69;5433887;26;20450;-71
2024/05/02 11:00:51;;;;;;;13.93;8.30;;;;;;;20.88;100.00;95667.59;5434027;26;20438;-71
2024/05/02 11:03:17;;;;;;;16.03;8.70;;;;;;;20.38;100.00;95668.78;5435777;26;20279;-71
2024/05/02 11:05:46;;;;;;;13.27;7.93;;;;;;;20.19;100.00;95675.25;5435596;26;20434;-72
2024/05/02 11:08:27;;;;;;;12.97;8.90;;;;;;;20.26;100.00;95670.16;5433787;26;20515;-71
2024/05/02 11:12:32;;;;;;;15.07;8.97;;;;;;;19.67;100.00;95670.44;5583063;25;20744;-73
2024/05/02 11:14:58;;;;;;;12.07;8.80;;;;;;;19.57;100.00;95667.97;5545995;25;20448;-72
2024/05/02 11:17:24;;;;;;;12.60;9.50;;;;;;;19.12;100.00;95680.63;5543760;25;20239;-70
2024/05/02 11:19:52;;;;;;;13.50;9.83;;;;;;;19.21;100.00;95672.72;5544036;25;20695;-71
2024/05/02 11:22:19;;;;;;;12.80;8.50;;;;;;;19.49;100.00;95687.22;5543945;25;20221;-72
2024/05/02 11:24:56;;;;;;;12.50;9.20;;;;;;;19.43;100.00;95690.53;5543821;25;20512;-72
2024/05/02 11:27:23;;;;;;;14.97;7.90;;;;;;;19.31;100.00;95697.91;5543678;25;20468;-71
2024/05/02 11:29:50;;;;;;;13.70;8.17;;;;;;;18.71;100.00;95693.66;5545638;25;20433;-71
2024/05/02 11:32:16;;;;;;;13.60;9.23;;;;;;;18.87;100.00;95700.00;5543547;25;20526;-71
2024/05/02 11:36:28;;;;;;;18.17;9.03;;;;;;;18.48;100.00;95689.97;5582986;25;20321;-71
2024/05/02 11:38:54;;;;;;;15.70;9.70;;;;;;;18.42;100.00;95696.69;5545679;25;21053;-71
2024/05/02 11:41:20;;;;;;;15.60;10.60;;;;;;;18.38;100.00;95693.56;5545959;25;20487;-70
2024/05/02 11:43:47;;;;;;;16.77;9.00;;;;;;;18.50;100.00;95694.09;5543806;25;20447;-71
2024/05/02 11:46:14;;;;;;;13.17;8.83;;;;;;;19.22;100.00;95695.44;5545506;25;20268;-71
2024/05/02 11:48:44;;;;;;;20.50;9.00;;;;;;;18.30;100.00;95704.03;5545696;25;20476;-71
2024/05/02 11:51:11;;;;;;;15.40;9.80;;;;;;;17.98;100.00;95710.75;5513067;25;20451;-71
2024/05/02 11:53:38;;;;;;;16.40;10.50;;;;;;;17.98;100.00;95718.63;5512884;25;20994;-71
2024/05/02 11:56:06;;;;;;;13.43;9.43;;;;;;;17.99;100.00;95711.56;5545480;25;20435;-72
2024/05/02 12:00:25;;;;;;;12.97;8.27;;;;;;;18.47;100.00;95728.59;5545447;25;20563;-72
2024/05/02 12:02:52;;;;;;;18.57;11.23;;;;;;;18.67;100.00;95725.72;5506939;26;20449;-72
2024/05/02 12:05:22;;;;;;;15.00;9.50;;;;;;;18.74;100.00;95724.09;5476328;26;20885;-72
2024/05/02 12:07:47;;;;;;;13.57;8.87;;;;;;;18.73;100.00;95730.31;5506755;26;20514;-71
2024/05/02 12:10:13;;;;;;;18.13;10.23;;;;;;;18.67;100.00;95734.41;5508656;25;20445;-70
2024/05/02 12:12:39;;;;;;;13.50;9.17;;;;;;;18.37;100.00;95743.63;5506726;26;20248;-69
2024/05/02 12:15:05;;;;;;;13.03;8.63;;;;;;;18.20;100.00;95748.81;5508335;26;20261;-68